Time;durP1;ratioP1;P1;durP2;ratioP2;P2;SDS_P1;SDS_P2;PMS_P1;PMS_P2;Temp;Humidity;BMP_temperature;BMP_pressure;BME280_temperature;BME280_humidity;BME280_pressure;Samples;Min_cycle;Max_cycle;Signal;HPM_P1;HPM_P2
2021/07/22 00:00:23;;;;;;;14.63;5.28;;;18.50;99.90;;;;;;5042120;28;20477;-68
2021/07/22 00:02:50;;;;;;;11.63;5.10;;;18.50;99.90;;;;;;5041092;28;20025;-69
2021/07/22 00:05:16;;;;;;;10.52;5.15;;;18.40;99.90;;;;;;5040795;28;20043;-68
2021/07/22 00:07:42;;;;;;;14.10;5.13;;;18.40;99.90;;;;;;5040634;28;20501;-69
2021/07/22 00:10:08;;;;;;;11.57;4.88;;;18.30;99.90;;;;;;5039816;28;20055;-69
2021/07/22 00:12:34;;;;;;;10.68;4.82;;;18.30;99.90;;;;;;5046764;28;20029;-69
2021/07/22 00:15:00;;;;;;;11.90;5.60;;;18.20;99.90;;;;;;5038014;28;20666;-69
2021/07/22 00:17:25;;;;;;;12.55;5.07;;;18.20;99.90;;;;;;5040271;28;20075;-68
2021/07/22 00:19:51;;;;;;;16.30;6.43;;;18.20;99.90;;;;;;5041258;28;20037;-68
2021/07/22 00:22:16;;;;;;;13.50;5.90;;;18.10;99.90;;;;;;5041985;28;20044;-69
2021/07/22 00:24:42;;;;;;;15.52;6.07;;;18.10;99.90;;;;;;5040245;28;20037;-69
2021/07/22 00:27:07;;;;;;;13.50;5.30;;;18.10;99.90;;;;;;5042931;28;20037;-68
2021/07/22 00:29:34;;;;;;;12.73;5.03;;;18.10;99.90;;;;;;5039846;28;20042;-68
2021/07/22 00:32:00;;;;;;;13.95;5.50;;;18.00;99.90;;;;;;5042559;28;20493;-69
2021/07/22 00:34:25;;;;;;;10.88;5.07;;;18.10;99.90;;;;;;5039868;28;20040;-68
2021/07/22 00:36:51;;;;;;;12.35;5.20;;;18.00;99.90;;;;;;5039711;28;20403;-69
2021/07/22 00:39:18;;;;;;;11.23;5.53;;;18.00;99.90;;;;;;5042715;28;20033;-68
2021/07/22 00:41:43;;;;;;;12.75;4.85;;;18.00;99.90;;;;;;5041016;28;20028;-69
2021/07/22 00:44:09;;;;;;;11.68;5.60;;;17.90;99.90;;;;;;5039684;28;20037;-68
2021/07/22 00:46:35;;;;;;;11.57;5.43;;;17.90;99.90;;;;;;5043143;28;20032;-69
2021/07/22 00:49:00;;;;;;;14.73;5.63;;;17.90;99.90;;;;;;5039591;28;20021;-69
2021/07/22 00:51:26;;;;;;;14.45;5.22;;;17.90;99.90;;;;;;5042447;28;20102;-69
2021/07/22 00:53:51;;;;;;;14.55;5.28;;;17.80;99.90;;;;;;5039323;28;20512;-69
2021/07/22 00:56:17;;;;;;;13.48;5.63;;;17.80;99.90;;;;;;5041175;28;20386;-69
2021/07/22 00:58:42;;;;;;;12.73;5.90;;;17.80;99.90;;;;;;5041776;28;20043;-69
2021/07/22 01:01:08;;;;;;;16.25;6.10;;;17.80;99.90;;;;;;5037601;28;20037;-69
2021/07/22 01:03:38;;;;;;;14.13;6.13;;;17.70;99.90;;;;;;5042548;28;20083;-68
2021/07/22 01:06:04;;;;;;;;;;;17.70;99.90;;;;;;5038689;28;20040;-69
2021/07/22 01:08:30;;;;;;;12.10;5.50;;;17.70;99.90;;;;;;5042342;28;19917;-69
2021/07/22 01:10:55;;;;;;;12.60;5.28;;;17.70;99.90;;;;;;5039678;28;20522;-68
2021/07/22 01:13:21;;;;;;;14.60;5.80;;;17.70;99.90;;;;;;5042924;28;20044;-69
2021/07/22 01:15:46;;;;;;;15.98;6.63;;;17.60;99.90;;;;;;5039745;28;20029;-70
2021/07/22 01:18:12;;;;;;;13.27;5.60;;;17.60;99.90;;;;;;5038800;28;20030;-69
2021/07/22 01:20:37;;;;;;;14.88;5.72;;;17.60;99.90;;;;;;5040083;28;20464;-69
2021/07/22 01:23:03;;;;;;;11.70;5.40;;;17.60;99.90;;;;;;5037970;28;20091;-69
2021/07/22 01:25:29;;;;;;;12.98;5.43;;;17.50;99.90;;;;;;5041859;28;20033;-69
2021/07/22 01:27:56;;;;;;;11.88;5.45;;;17.50;99.90;;;;;;5038616;28;20037;-69
2021/07/22 01:30:21;;;;;;;12.10;5.65;;;17.50;99.90;;;;;;5041081;28;20428;-68
2021/07/22 01:32:47;;;;;;;12.73;5.05;;;17.50;99.90;;;;;;5039608;28;20207;-68
2021/07/22 01:35:13;;;;;;;13.63;5.35;;;17.50;99.90;;;;;;5037609;28;20118;-69
2021/07/22 01:37:40;;;;;;;16.77;6.00;;;17.50;99.90;;;;;;5041172;28;20056;-69
2021/07/22 01:40:06;;;;;;;16.83;5.95;;;17.50;99.90;;;;;;5039826;28;20567;-68
2021/07/22 01:42:32;;;;;;;12.40;5.95;;;17.40;99.90;;;;;;5041306;28;20040;-69
2021/07/22 01:44:58;;;;;;;14.85;5.88;;;17.40;99.90;;;;;;5036088;28;20557;-69
2021/07/22 01:47:23;;;;;;;17.63;5.95;;;17.40;99.90;;;;;;5039807;28;20083;-69
2021/07/22 01:49:49;;;;;;;19.83;7.35;;;17.40;99.90;;;;;;5040208;28;20086;-68
2021/07/22 01:52:14;;;;;;;13.98;6.43;;;17.40;99.90;;;;;;5039312;28;20048;-69
2021/07/22 01:54:40;;;;;;;15.80;6.75;;;17.30;99.90;;;;;;5038962;28;20116;-69
2021/07/22 01:57:06;;;;;;;19.20;6.68;;;17.30;99.90;;;;;;5040504;28;20059;-69
2021/07/22 01:59:38;;;;;;;18.35;7.43;;;17.30;99.90;;;;;;5038237;28;20638;-69
2021/07/22 02:02:08;;;;;;;18.33;7.20;;;17.30;99.90;;;;;;5040860;28;20481;-69
2021/07/22 02:04:36;;;;;;;18.30;6.72;;;17.30;99.90;;;;;;5035550;28;20045;-69
2021/07/22 02:07:01;;;;;;;16.92;7.20;;;17.30;99.90;;;;;;5039786;28;20049;-69
2021/07/22 02:09:27;;;;;;;21.30;7.78;;;17.30;99.90;;;;;;5037791;28;20056;-69
2021/07/22 02:11:54;;;;;;;18.80;6.95;;;17.40;99.90;;;;;;5043392;28;20569;-69
2021/07/22 02:14:20;;;;;;;17.00;7.88;;;17.40;99.90;;;;;;5037930;28;20500;-69
2021/07/22 02:16:46;;;;;;;15.95;6.38;;;17.40;99.90;;;;;;5036284;28;20063;-68
2021/07/22 02:19:11;;;;;;;17.85;7.82;;;17.40;99.90;;;;;;5037657;28;20041;-69
2021/07/22 02:21:37;;;;;;;17.85;7.50;;;17.40;99.90;;;;;;5038968;28;20025;-69
2021/07/22 02:24:04;;;;;;;20.10;7.22;;;17.40;99.90;;;;;;5037465;28;20033;-70
2021/07/22 02:26:30;;;;;;;18.70;7.28;;;17.40;99.90;;;;;;5040734;28;20025;-69
2021/07/22 02:28:56;;;;;;;17.85;7.75;;;17.30;99.90;;;;;;5036155;28;20037;-69
2021/07/22 02:31:21;;;;;;;17.65;7.07;;;17.30;99.90;;;;;;5040005;28;20032;-69
2021/07/22 02:33:47;;;;;;;16.70;7.82;;;17.30;99.90;;;;;;5037874;28;20060;-69
2021/07/22 02:36:12;;;;;;;18.05;7.05;;;17.30;99.90;;;;;;5038203;28;20386;-69
2021/07/22 02:38:38;;;;;;;20.92;7.55;;;17.30;99.90;;;;;;5039882;28;20618;-69
2021/07/22 02:41:05;;;;;;;19.00;7.68;;;17.20;99.90;;;;;;5037707;28;20039;-69
2021/07/22 02:43:31;;;;;;;18.85;8.10;;;17.20;99.90;;;;;;5040215;28;20414;-69
2021/07/22 02:45:56;;;;;;;19.25;7.85;;;17.20;99.90;;;;;;5036945;28;20037;-69
2021/07/22 02:48:22;;;;;;;21.42;7.82;;;17.10;99.90;;;;;;5036923;28;20106;-69
2021/07/22 02:50:48;;;;;;;19.90;8.52;;;17.10;99.90;;;;;;5040149;28;20030;-68
2021/07/22 02:53:13;;;;;;;20.38;9.23;;;17.10;99.90;;;;;;5040132;28;20817;-69
2021/07/22 02:55:39;;;;;;;19.52;7.72;;;17.10;99.90;;;;;;5039039;28;20037;-69
2021/07/22 02:58:06;;;;;;;18.83;8.02;;;17.00;99.90;;;;;;5037979;28;20041;-70
2021/07/22 03:00:32;;;;;;;17.58;7.22;;;17.00;99.90;;;;;;5040377;28;20028;-69
2021/07/22 03:03:01;;;;;;;17.77;7.72;;;17.00;99.90;;;;;;5037131;28;20026;-69
2021/07/22 03:05:31;;;;;;;19.27;7.40;;;16.90;99.90;;;;;;5040976;28;20043;-69
2021/07/22 03:07:59;;;;;;;17.17;7.63;;;16.90;99.90;;;;;;5036117;28;20042;-69
2021/07/22 03:10:25;;;;;;;17.50;7.30;;;16.90;99.90;;;;;;5040951;28;20398;-69
2021/07/22 03:12:53;;;;;;;23.77;7.28;;;16.90;99.90;;;;;;5041614;28;20140;-69
2021/07/22 03:15:18;;;;;;;20.75;7.32;;;16.90;99.90;;;;;;5038993;28;20029;-69
2021/07/22 03:17:44;;;;;;;17.73;7.60;;;16.90;99.90;;;;;;5042061;28;20099;-69
2021/07/22 03:20:10;;;;;;;17.10;7.30;;;16.80;99.90;;;;;;5041380;28;20068;-70
2021/07/22 03:22:36;;;;;;;15.43;7.47;;;16.90;99.90;;;;;;5044421;28;20037;-69
2021/07/22 03:25:02;;;;;;;17.30;6.88;;;16.80;99.90;;;;;;5043848;28;20037;-68
2021/07/22 03:27:27;;;;;;;16.85;7.45;;;16.80;99.90;;;;;;5040604;28;20026;-69
2021/07/22 03:29:53;;;;;;;17.65;7.43;;;16.80;99.90;;;;;;5042951;28;20573;-69
2021/07/22 03:32:18;;;;;;;18.73;8.00;;;16.80;99.90;;;;;;5040310;28;20030;-69
2021/07/22 03:34:44;;;;;;;15.75;7.38;;;16.80;99.90;;;;;;5043300;28;20413;-69
2021/07/22 03:37:10;;;;;;;17.27;7.63;;;16.80;99.90;;;;;;5042541;28;20067;-69
2021/07/22 03:39:35;;;;;;;19.30;7.35;;;16.80;99.90;;;;;;5044505;28;20063;-69
2021/07/22 03:42:01;;;;;;;19.45;7.40;;;16.80;99.90;;;;;;5040563;28;20041;-69
2021/07/22 03:44:27;;;;;;;16.45;7.60;;;16.80;99.90;;;;;;5039697;28;20585;-69
2021/07/22 03:46:52;;;;;;;14.18;6.15;;;16.70;99.90;;;;;;5043326;28;20045;-68
2021/07/22 03:49:18;;;;;;;15.77;7.82;;;16.70;99.90;;;;;;5038718;28;20055;-69
2021/07/22 03:51:43;;;;;;;18.77;7.82;;;16.70;99.90;;;;;;5042563;28;20117;-69
2021/07/22 03:54:09;;;;;;;16.58;7.22;;;16.70;99.90;;;;;;5039718;28;20040;-69
2021/07/22 03:56:35;;;;;;;19.27;7.03;;;16.70;99.90;;;;;;5040910;28;20080;-69
2021/07/22 03:59:00;;;;;;;17.60;7.25;;;16.70;99.90;;;;;;5042878;28;20116;-69
2021/07/22 04:01:26;;;;;;;17.10;6.85;;;16.70;99.90;;;;;;5043758;28;20048;-69
2021/07/22 04:03:54;;;;;;;15.57;7.13;;;16.70;99.90;;;;;;5040222;28;20048;-69
2021/07/22 04:06:20;;;;;;;14.93;7.10;;;16.60;99.90;;;;;;5044241;28;20064;-69
2021/07/22 04:08:45;;;;;;;14.95;7.00;;;16.70;99.90;;;;;;5043343;28;20036;-69
2021/07/22 04:11:11;;;;;;;17.40;8.23;;;16.60;99.90;;;;;;5043871;28;20044;-69
2021/07/22 04:13:36;;;;;;;18.08;7.28;;;16.60;99.90;;;;;;5041548;28;20064;-69
2021/07/22 04:16:03;;;;;;;14.93;6.80;;;16.60;99.90;;;;;;5040852;28;20050;-69
2021/07/22 04:18:29;;;;;;;20.58;8.02;;;16.60;99.90;;;;;;5041594;28;20095;-69
2021/07/22 04:20:54;;;;;;;15.00;6.97;;;16.60;99.90;;;;;;5038894;28;20033;-69
2021/07/22 04:23:21;;;;;;;17.15;7.15;;;16.70;99.90;;;;;;5042865;28;20033;-69
2021/07/22 04:25:46;;;;;;;12.48;6.00;;;16.80;99.90;;;;;;5038724;28;20036;-69
2021/07/22 04:28:12;;;;;;;19.80;6.80;;;16.80;99.90;;;;;;5039778;28;20459;-68
2021/07/22 04:30:38;;;;;;;14.20;6.75;;;16.90;99.90;;;;;;5037890;28;20128;-70
2021/07/22 04:33:05;;;;;;;21.08;6.72;;;17.00;99.90;;;;;;5039532;28;20116;-69
2021/07/22 04:35:30;;;;;;;16.02;6.70;;;17.00;99.90;;;;;;5040328;28;20021;-69
2021/07/22 04:37:56;;;;;;;18.15;5.97;;;17.10;99.90;;;;;;5041277;28;20052;-69
2021/07/22 04:40:22;;;;;;;15.65;6.93;;;17.10;99.90;;;;;;5043206;28;20071;-71
2021/07/22 04:42:47;;;;;;;13.98;6.95;;;17.10;99.90;;;;;;5036111;28;20084;-69
2021/07/22 04:45:13;;;;;;;16.55;6.95;;;17.10;99.90;;;;;;5040513;28;20033;-69
2021/07/22 04:47:39;;;;;;;14.30;6.70;;;17.10;99.90;;;;;;5038758;28;20025;-69
2021/07/22 04:50:05;;;;;;;18.42;7.05;;;17.10;99.90;;;;;;5037842;28;20034;-69
2021/07/22 04:52:31;;;;;;;13.15;6.88;;;17.10;99.90;;;;;;5040750;28;20052;-70
2021/07/22 04:54:57;;;;;;;15.10;7.13;;;17.10;99.90;;;;;;5038672;28;20087;-69
2021/07/22 04:57:22;;;;;;;13.10;6.15;;;17.10;99.90;;;;;;5044360;28;20151;-69
2021/07/22 04:59:48;;;;;;;17.17;7.40;;;17.20;99.90;;;;;;5047722;28;20033;-69
2021/07/22 05:02:15;;;;;;;18.27;6.80;;;17.20;99.90;;;;;;5046325;28;20070;-69
2021/07/22 05:04:41;;;;;;;18.48;6.95;;;17.30;99.90;;;;;;5046199;28;20094;-69
2021/07/22 05:07:07;;;;;;;13.93;7.20;;;17.30;99.90;;;;;;5048728;28;20033;-69
2021/07/22 05:09:34;;;;;;;12.73;6.25;;;17.40;99.90;;;;;;5047767;28;20112;-69
2021/07/22 05:11:59;;;;;;;14.82;6.68;;;17.50;99.90;;;;;;5047912;28;20103;-69
2021/07/22 05:14:25;;;;;;;19.73;7.00;;;17.50;99.90;;;;;;5048720;28;20418;-69
2021/07/22 05:16:51;;;;;;;18.33;6.55;;;17.50;99.90;;;;;;5047769;28;20125;-69
2021/07/22 05:19:16;;;;;;;17.20;5.95;;;17.60;99.90;;;;;;5046474;28;20029;-69
2021/07/22 05:21:43;;;;;;;15.65;6.20;;;17.60;99.90;;;;;;5046248;28;20052;-69
2021/07/22 05:24:08;;;;;;;9.85;5.25;;;17.70;99.90;;;;;;5031055;28;20445;-69
2021/07/22 05:26:37;;;;;;;12.32;5.65;;;17.80;99.90;;;;;;5047527;28;20025;-70
2021/07/22 05:29:03;;;;;;;19.20;6.20;;;17.80;99.90;;;;;;5048363;28;20083;-69
2021/07/22 05:31:29;;;;;;;15.02;6.38;;;17.80;99.90;;;;;;5048582;28;20499;-69
2021/07/22 05:33:54;;;;;;;14.68;5.57;;;18.00;99.90;;;;;;5047363;28;20024;-69
2021/07/22 05:36:20;;;;;;;15.27;5.93;;;18.00;99.90;;;;;;5046916;28;20033;-69
2021/07/22 05:38:46;;;;;;;12.55;6.40;;;18.00;99.90;;;;;;5046354;28;20043;-69
2021/07/22 05:41:11;;;;;;;13.77;5.68;;;18.20;99.90;;;;;;5046432;28;20033;-69
2021/07/22 05:43:37;;;;;;;17.30;6.25;;;18.30;99.90;;;;;;5044777;28;20489;-70
2021/07/22 05:46:03;;;;;;;13.63;6.05;;;18.60;99.90;;;;;;5043676;28;20025;-69
2021/07/22 05:48:29;;;;;;;16.45;6.72;;;18.80;99.90;;;;;;5045047;28;20029;-70
2021/07/22 05:50:59;;;;;;;14.02;6.13;;;19.00;99.90;;;;;;5045887;28;20094;-70
2021/07/22 05:53:24;;;;;;;11.82;5.57;;;19.10;99.90;;;;;;5045206;28;20033;-70
2021/07/22 05:55:50;;;;;;;13.30;5.60;;;19.20;99.90;;;;;;5044879;28;20699;-70
2021/07/22 05:58:15;;;;;;;10.32;5.28;;;19.30;99.90;;;;;;5045087;28;20692;-69
2021/07/22 06:00:41;;;;;;;11.50;5.00;;;19.40;99.90;;;;;;5045121;28;20047;-69
2021/07/22 06:03:07;;;;;;;8.93;4.63;;;19.40;99.90;;;;;;5045800;28;20037;-69
2021/07/22 06:05:34;;;;;;;7.50;4.40;;;19.50;99.90;;;;;;5044493;28;20041;-70
2021/07/22 06:08:03;;;;;;;9.95;5.22;;;19.60;99.90;;;;;;5044199;28;20025;-69
2021/07/22 06:10:29;;;;;;;9.02;4.47;;;19.60;99.90;;;;;;5043856;28;20654;-70
2021/07/22 06:12:55;;;;;;;6.88;3.95;;;19.70;99.90;;;;;;5044310;28;20501;-69
2021/07/22 06:15:21;;;;;;;9.02;4.13;;;19.80;99.90;;;;;;5043199;28;20036;-70
2021/07/22 06:17:47;;;;;;;8.02;4.30;;;20.00;99.90;;;;;;5043006;28;20041;-70
2021/07/22 06:20:13;;;;;;;7.68;4.25;;;20.30;99.90;;;;;;5044880;28;20041;-70
2021/07/22 06:22:38;;;;;;;7.05;3.30;;;20.50;99.90;;;;;;5044373;28;20028;-70
2021/07/22 06:25:06;;;;;;;7.88;4.13;;;20.70;99.90;;;;;;5044399;28;20045;-70
2021/07/22 06:27:32;;;;;;;8.30;3.70;;;20.90;99.90;;;;;;5045300;28;20143;-69
2021/07/22 06:30:01;;;;;;;5.97;3.92;;;21.10;99.90;;;;;;5044631;28;20064;-70
2021/07/22 06:32:27;;;;;;;6.45;3.50;;;21.20;99.90;;;;;;5045006;28;20033;-70
2021/07/22 06:34:53;;;;;;;7.07;3.80;;;21.30;99.90;;;;;;5043501;28;20037;-70
2021/07/22 06:37:18;;;;;;;9.32;3.55;;;21.40;99.90;;;;;;5045327;28;20029;-70
2021/07/22 06:39:44;;;;;;;5.78;3.22;;;21.50;99.90;;;;;;5045225;28;20095;-70
2021/07/22 06:42:09;;;;;;;9.55;4.10;;;21.60;99.90;;;;;;5044009;28;20362;-70
2021/07/22 06:44:35;;;;;;;6.65;3.78;;;21.70;99.90;;;;;;5048187;28;20536;-69
2021/07/22 06:47:01;;;;;;;6.55;3.33;;;21.80;99.90;;;;;;5044475;28;20029;-70
2021/07/22 06:49:26;;;;;;;6.07;3.30;;;21.90;99.90;;;;;;5045362;28;20040;-69
2021/07/22 06:51:52;;;;;;;10.50;3.58;;;21.90;99.90;;;;;;5043774;28;20048;-71
2021/07/22 06:54:19;;;;;;;6.07;3.67;;;22.10;99.90;;;;;;5044703;28;20037;-70
2021/07/22 06:56:45;;;;;;;8.48;3.70;;;22.30;99.90;;;;;;5044097;28;20120;-69
2021/07/22 06:59:10;;;;;;;9.75;4.22;;;22.50;99.90;;;;;;5044533;28;20124;-70
2021/07/22 07:01:36;;;;;;;6.82;2.72;;;22.40;99.90;;;;;;5043703;28;20036;-70
2021/07/22 07:04:04;;;;;;;8.93;3.55;;;22.10;99.90;;;;;;5044560;28;20037;-70
2021/07/22 07:06:34;;;;;;;5.75;3.20;;;22.50;99.90;;;;;;5045314;28;20052;-70
2021/07/22 07:09:00;;;;;;;6.80;2.78;;;23.30;99.90;;;;;;5043828;28;20742;-70
2021/07/22 07:11:25;;;;;;;6.20;2.70;;;24.10;99.90;;;;;;5044949;28;20032;-70
2021/07/22 07:13:51;;;;;;;5.15;2.88;;;25.10;99.90;;;;;;5044999;28;20053;-70
2021/07/22 07:16:17;;;;;;;9.13;2.95;;;26.00;99.90;;;;;;5044862;28;20057;-70
2021/07/22 07:18:42;;;;;;;5.65;2.67;;;27.00;98.50;;;;;;5045489;28;20527;-70
2021/07/22 07:21:08;;;;;;;7.63;3.83;;;27.80;97.70;;;;;;5044359;28;20417;-70
2021/07/22 07:23:34;;;;;;;6.57;3.45;;;28.10;94.20;;;;;;5044971;28;20120;-71
2021/07/22 07:26:00;;;;;;;5.00;3.13;;;27.90;92.50;;;;;;5044773;28;20025;-71
2021/07/22 07:28:26;;;;;;;6.60;3.45;;;27.60;92.40;;;;;;5045159;28;20425;-70
2021/07/22 07:30:53;;;;;;;8.27;3.05;;;27.10;92.00;;;;;;5044227;28;20128;-69
2021/07/22 07:33:18;;;;;;;5.72;2.40;;;26.50;93.40;;;;;;5044344;28;20037;-70
2021/07/22 07:35:44;;;;;;;4.40;2.42;;;26.80;93.10;;;;;;5045144;28;20378;-70
2021/07/22 07:38:10;;;;;;;4.57;2.55;;;26.80;91.80;;;;;;5044763;28;20029;-70
2021/07/22 07:40:36;;;;;;;4.50;2.65;;;27.30;91.50;;;;;;5044993;28;20040;-70
2021/07/22 07:43:02;;;;;;;5.07;2.25;;;27.50;90.60;;;;;;5044979;28;20556;-71
2021/07/22 07:45:29;;;;;;;7.15;3.13;;;27.70;90.10;;;;;;5044433;28;20108;-71
2021/07/22 07:47:55;;;;;;;6.68;3.65;;;27.30;89.80;;;;;;5045220;28;20640;-70
2021/07/22 07:50:20;;;;;;;5.53;2.53;;;26.90;89.60;;;;;;5043962;28;22587;-70
2021/07/22 07:52:46;;;;;;;4.15;2.67;;;26.20;90.60;;;;;;5043955;28;20107;-70
2021/07/22 07:55:12;;;;;;;6.72;2.90;;;25.60;91.30;;;;;;5037883;28;20033;-70
2021/07/22 07:57:39;;;;;;;5.70;2.92;;;25.60;92.40;;;;;;5040841;28;20035;-70
2021/07/22 08:00:06;;;;;;;6.28;2.67;;;25.20;92.40;;;;;;5044607;28;20029;-70
2021/07/22 08:02:32;;;;;;;4.65;2.45;;;24.80;93.40;;;;;;5044386;28;20041;-70
2021/07/22 08:04:57;;;;;;;4.32;2.38;;;24.30;93.50;;;;;;5047931;28;20047;-70
2021/07/22 08:07:24;;;;;;;5.43;2.47;;;23.90;94.70;;;;;;5047698;28;20510;-70
2021/07/22 08:09:50;;;;;;;8.02;2.22;;;23.50;95.60;;;;;;5048523;28;20029;-70
2021/07/22 08:12:16;;;;;;;7.18;2.50;;;23.30;96.70;;;;;;5047818;28;20059;-70
2021/07/22 08:14:41;;;;;;;5.28;2.50;;;23.30;97.40;;;;;;5048136;28;20062;-69
2021/07/22 08:17:07;;;;;;;6.07;3.05;;;23.30;96.20;;;;;;5046945;28;20025;-69
2021/07/22 08:19:34;;;;;;;4.15;2.30;;;23.30;96.50;;;;;;5047712;28;20049;-69
2021/07/22 08:22:00;;;;;;;3.25;2.13;;;23.30;96.70;;;;;;5048366;28;20106;-69
2021/07/22 08:24:26;;;;;;;5.68;2.60;;;23.30;96.10;;;;;;5047193;28;20131;-69
2021/07/22 08:26:52;;;;;;;3.03;1.95;;;23.20;96.10;;;;;;5046212;28;20501;-69
2021/07/22 08:29:18;;;;;;;3.97;1.90;;;23.00;96.80;;;;;;5047762;28;20040;-69
2021/07/22 08:31:44;;;;;;;4.40;2.22;;;22.90;96.40;;;;;;5047923;28;20049;-70
2021/07/22 08:34:12;;;;;;;8.00;2.67;;;22.70;97.10;;;;;;5047308;28;20033;-70
2021/07/22 08:36:37;;;;;;;5.40;2.17;;;22.60;97.90;;;;;;5047649;28;20022;-69
2021/07/22 08:39:03;;;;;;;6.82;2.45;;;22.60;98.70;;;;;;5047927;28;20032;-69
2021/07/22 08:41:29;;;;;;;9.77;2.22;;;22.50;97.40;;;;;;5047186;28;20090;-69
2021/07/22 08:43:57;;;;;;;5.60;2.03;;;22.50;96.10;;;;;;5047400;28;20040;-69
2021/07/22 08:46:23;;;;;;;2.90;1.52;;;22.50;96.10;;;;;;5047286;28;20041;-69
2021/07/22 08:48:49;;;;;;;3.13;1.65;;;22.60;96.20;;;;;;5046482;28;20021;-69
2021/07/22 08:51:15;;;;;;;3.72;1.45;;;22.40;96.60;;;;;;5047319;28;20040;-69
2021/07/22 08:53:41;;;;;;;4.88;2.20;;;22.40;96.30;;;;;;5042039;28;20034;-69
2021/07/22 08:56:08;;;;;;;6.93;2.70;;;22.30;96.50;;;;;;5040452;28;20041;-69
2021/07/22 08:58:37;;;;;;;7.15;2.65;;;22.30;96.80;;;;;;5042585;28;20036;-69
2021/07/22 09:01:04;;;;;;;4.45;1.95;;;22.20;97.40;;;;;;5044648;28;20029;-69
2021/07/22 09:03:29;;;;;;;3.30;2.22;;;22.30;96.80;;;;;;5047225;28;20040;-68
2021/07/22 09:05:55;;;;;;;4.25;2.00;;;22.30;96.70;;;;;;5046279;28;20040;-69
2021/07/22 09:08:21;;;;;;;3.13;2.05;;;22.30;96.50;;;;;;5046866;28;20032;-68
2021/07/22 09:11:06;;;;;;;4.22;1.85;;;22.40;96.70;;;;;;5047083;28;20033;-69
2021/07/22 09:13:32;;;;;;;4.00;1.88;;;22.40;96.90;;;;;;5044520;28;20049;-69
2021/07/22 09:15:57;;;;;;;4.25;1.85;;;22.40;96.80;;;;;;5046084;28;20523;-69
2021/07/22 09:18:25;;;;;;;5.50;2.15;;;22.50;97.00;;;;;;5046621;28;20112;-69
2021/07/22 09:20:52;;;;;;;3.38;1.75;;;22.60;96.30;;;;;;5046826;28;20029;-69
2021/07/22 09:23:25;;;;;;;3.55;2.03;;;22.60;97.20;;;;;;5046665;28;20032;-69
2021/07/22 09:25:52;;;;;;;3.75;2.00;;;22.70;96.70;;;;;;5046138;28;20036;-69
2021/07/22 09:28:21;;;;;;;8.77;2.00;;;22.80;96.70;;;;;;5046698;28;20063;-69
2021/07/22 09:30:58;;;;;;;3.80;1.90;;;23.00;96.80;;;;;;5045989;28;20121;-70
2021/07/22 09:33:41;;;;;;;5.30;2.03;;;23.10;95.40;;;;;;5046315;28;20052;-69
2021/07/22 09:36:19;;;;;;;3.53;2.22;;;23.10;95.00;;;;;;5042912;28;20079;-69
2021/07/22 09:38:45;;;;;;;3.53;1.60;;;23.30;95.00;;;;;;5046060;28;20021;-70
2021/07/22 09:41:23;;;;;;;2.83;1.98;;;23.20;94.10;;;;;;5042984;28;20033;-69
2021/07/22 09:43:49;;;;;;;2.70;1.50;;;23.20;94.50;;;;;;5044788;28;20894;-69
2021/07/22 09:46:15;;;;;;;3.78;1.65;;;23.20;94.40;;;;;;5044749;28;20055;-69
2021/07/22 09:49:09;;;;;;;4.07;2.10;;;23.20;94.70;;;;;;5043863;28;20029;-70
2021/07/22 09:51:35;;;;;;;1.80;1.23;;;23.40;94.10;;;;;;5041485;28;20116;-69
2021/07/22 09:54:08;;;;;;;2.55;1.60;;;23.20;93.70;;;;;;5044246;28;20033;-70
2021/07/22 09:56:36;;;;;;;3.05;1.20;;;23.20;94.50;;;;;;5043054;28;20489;-69
2021/07/22 09:59:02;;;;;;;2.75;1.52;;;23.40;93.70;;;;;;5044288;28;20040;-70
2021/07/22 10:01:28;;;;;;;3.40;1.65;;;23.70;93.90;;;;;;5043702;28;20032;-70
2021/07/22 10:03:55;;;;;;;4.63;2.05;;;23.90;92.40;;;;;;5041470;28;20037;-69
2021/07/22 10:06:21;;;;;;;2.55;1.65;;;24.30;92.00;;;;;;5041294;28;20032;-70
2021/07/22 10:08:47;;;;;;;2.60;1.38;;;24.70;90.80;;;;;;5042975;28;20070;-69
2021/07/22 10:11:13;;;;;;;2.22;1.33;;;24.90;90.00;;;;;;5044672;28;20106;-69
2021/07/22 10:13:40;;;;;;;8.07;1.15;;;24.90;89.60;;;;;;5044394;28;20025;-69
2021/07/22 10:16:12;;;;;;;4.68;1.88;;;24.60;90.70;;;;;;5043720;28;20550;-69
2021/07/22 10:18:44;;;;;;;3.05;1.55;;;24.50;90.50;;;;;;5043220;28;20032;-69
2021/07/22 10:21:10;;;;;;;3.20;1.25;;;24.60;90.50;;;;;;5044801;28;20076;-69
2021/07/22 10:23:36;;;;;;;1.63;1.10;;;24.50;90.20;;;;;;5044063;28;20566;-69
2021/07/22 10:26:02;;;;;;;2.15;1.23;;;24.50;90.80;;;;;;5043754;28;20052;-69
2021/07/22 10:28:28;;;;;;;4.72;1.30;;;24.60;90.60;;;;;;5041919;28;20489;-69
2021/07/22 10:30:56;;;;;;;3.75;1.25;;;24.70;90.20;;;;;;5045905;28;20032;-69
2021/07/22 10:33:23;;;;;;;2.92;1.58;;;24.80;89.50;;;;;;5045224;28;20113;-70
2021/07/22 10:35:56;;;;;;;5.15;1.27;;;24.80;90.50;;;;;;5045794;28;20025;-69
2021/07/22 10:38:24;;;;;;;3.17;1.25;;;24.90;88.60;;;;;;5043135;28;20110;-71
2021/07/22 10:40:57;;;;;;;2.25;1.20;;;24.80;87.10;;;;;;5045937;28;20697;-69
2021/07/22 10:43:35;;;;;;;3.42;1.73;;;25.00;89.60;;;;;;5044550;28;20079;-70
2021/07/22 10:46:18;;;;;;;1.92;1.05;;;25.10;89.40;;;;;;5039540;28;20041;-69
2021/07/22 10:48:46;;;;;;;3.30;1.27;;;25.00;88.30;;;;;;5041570;28;20124;-69
2021/07/22 10:51:16;;;;;;;3.70;1.33;;;25.10;86.60;;;;;;5040373;28;20602;-69
2021/07/22 10:53:53;;;;;;;3.10;1.83;;;25.00;87.00;;;;;;5033412;28;20029;-70
2021/07/22 10:56:25;;;;;;;2.15;1.00;;;25.00;87.80;;;;;;5034694;28;20038;-70
2021/07/22 10:58:55;;;;;;;3.30;0.82;;;25.00;88.30;;;;;;5008307;28;20147;-70
2021/07/22 11:01:42;;;;;;;4.18;1.35;;;25.10;87.50;;;;;;5015884;28;20043;-70
2021/07/22 11:04:36;;;;;;;2.65;1.15;;;25.00;88.80;;;;;;5019534;28;20045;-70
2021/07/22 11:07:03;;;;;;;1.90;0.90;;;25.00;89.00;;;;;;5023678;28;20045;-70
2021/07/22 11:09:49;;;;;;;3.03;1.45;;;25.00;87.10;;;;;;5025605;28;20029;-70
2021/07/22 11:12:32;;;;;;;12.32;1.20;;;24.80;89.10;;;;;;5022970;28;20443;-70
2021/07/22 11:15:00;;;;;;;1.85;1.02;;;24.70;89.20;;;;;;5022152;28;20441;-70
2021/07/22 11:17:35;;;;;;;5.25;1.33;;;24.60;87.40;;;;;;5023465;28;20187;-69
2021/07/22 11:20:19;;;;;;;2.88;1.50;;;24.60;87.00;;;;;;5021546;28;20837;-70
2021/07/22 11:22:45;;;;;;;2.03;0.80;;;24.70;86.50;;;;;;5023905;28;20033;-69
2021/07/22 11:25:12;;;;;;;1.90;0.90;;;24.80;86.60;;;;;;5023410;28;20896;-69
2021/07/22 11:27:45;;;;;;;1.55;0.93;;;24.60;86.50;;;;;;5024927;28;20037;-70
2021/07/22 11:30:15;;;;;;;1.35;0.70;;;24.60;86.20;;;;;;5022724;28;20523;-70
2021/07/22 11:32:41;;;;;;;2.70;1.23;;;24.50;86.00;;;;;;5025047;28;20042;-70
2021/07/22 11:35:07;;;;;;;2.78;1.02;;;24.50;87.60;;;;;;5024069;28;20179;-70
2021/07/22 11:37:33;;;;;;;5.72;1.58;;;24.60;87.30;;;;;;5026296;28;20107;-70
2021/07/22 11:40:05;;;;;;;2.60;0.85;;;24.60;85.10;;;;;;5019438;28;20061;-70
2021/07/22 11:42:30;;;;;;;2.25;1.23;;;24.50;84.80;;;;;;5026308;28;20057;-70
2021/07/22 11:45:06;;;;;;;1.90;0.90;;;24.50;86.50;;;;;;5027799;28;20077;-71
2021/07/22 11:47:35;;;;;;;4.40;1.50;;;24.50;86.30;;;;;;5026701;28;20042;-70
2021/07/22 11:50:01;;;;;;;4.57;1.30;;;24.60;87.70;;;;;;5026765;28;20065;-70
2021/07/22 11:52:27;;;;;;;2.83;1.10;;;24.50;84.70;;;;;;5027043;28;20079;-70
2021/07/22 11:55:04;;;;;;;3.20;1.40;;;24.50;86.10;;;;;;5026503;28;20044;-69
2021/07/22 11:57:46;;;;;;;2.35;1.30;;;24.50;85.80;;;;;;5026102;28;20041;-70
2021/07/22 12:00:23;;;;;;;2.85;1.27;;;24.50;82.80;;;;;;5027293;28;20509;-70
2021/07/22 12:02:56;;;;;;;6.45;1.25;;;24.40;84.40;;;;;;5028223;28;20095;-70
2021/07/22 12:05:25;;;;;;;2.70;1.20;;;24.30;84.50;;;;;;5026284;28;20038;-69
2021/07/22 12:07:53;;;;;;;6.23;1.00;;;24.40;85.30;;;;;;5025533;28;20091;-70
2021/07/22 12:10:31;;;;;;;3.10;1.08;;;24.40;84.70;;;;;;5027690;28;20033;-70
2021/07/22 12:13:08;;;;;;;1.17;0.70;;;24.40;84.50;;;;;;5024443;28;20049;-70
2021/07/22 12:15:38;;;;;;;3.28;1.02;;;24.40;81.30;;;;;;5026133;28;20038;-70
2021/07/22 12:18:04;;;;;;;5.25;2.05;;;24.20;84.30;;;;;;5026472;28;20042;-70
2021/07/22 12:20:30;;;;;;;2.47;1.52;;;24.20;85.30;;;;;;5027145;28;20155;-70
2021/07/22 12:22:56;;;;;;;2.47;1.05;;;24.10;83.50;;;;;;5027409;28;20505;-69
2021/07/22 12:25:24;;;;;;;5.10;1.13;;;24.00;86.10;;;;;;5027392;28;20185;-70
2021/07/22 12:27:50;;;;;;;2.65;1.42;;;24.00;86.30;;;;;;5026610;28;20033;-70
2021/07/22 12:30:30;;;;;;;2.42;0.88;;;24.00;87.70;;;;;;5027243;28;20045;-70
2021/07/22 12:33:00;;;;;;;1.58;1.02;;;24.00;86.00;;;;;;5026661;28;20030;-70
2021/07/22 12:35:35;;;;;;;2.13;1.15;;;24.00;85.20;;;;;;5025998;28;20520;-70
2021/07/22 12:38:09;;;;;;;3.08;1.27;;;24.00;86.00;;;;;;5025250;28;20044;-70
2021/07/22 12:40:45;;;;;;;5.40;1.50;;;24.00;85.30;;;;;;5022801;28;20057;-70
2021/07/22 12:43:19;;;;;;;3.72;1.42;;;23.90;85.60;;;;;;5026190;28;20057;-70